Time;durP1;ratioP1;P1;durP2;ratioP2;P2;SDS_P1;SDS_P2;PMS_P1;PMS_P2;Temp;Humidity;BMP_temperature;BMP_pressure;BME280_temperature;BME280_humidity;BME280_pressure;Samples;Min_cycle;Max_cycle;Signal;HPM_P1;HPM_P2
2022/05/04 00:00:12;;;;;;;0.30;0.30;;;15.80;99.90;;;;;;5008257;28;20191;-81
2022/05/04 00:02:39;;;;;;;0.57;0.57;;;15.80;99.90;;;;;;5001191;28;20208;-82
2022/05/04 00:05:06;;;;;;;0.57;0.57;;;15.70;99.90;;;;;;5000469;28;20196;-81
2022/05/04 00:07:32;;;;;;;0.93;0.30;;;15.60;99.90;;;;;;5001895;28;20294;-82
2022/05/04 00:09:58;;;;;;;0.30;0.20;;;15.60;99.90;;;;;;4999883;28;20237;-81
2022/05/04 00:12:24;;;;;;;0.37;0.37;;;15.50;99.90;;;;;;5001083;28;20204;-82
2022/05/04 00:14:50;;;;;;;0.37;0.37;;;15.60;99.90;;;;;;5006423;28;20191;-82
2022/05/04 00:17:16;;;;;;;1.53;0.67;;;15.50;99.90;;;;;;5007302;28;20552;-81
2022/05/04 00:19:42;;;;;;;0.50;0.50;;;15.20;99.90;;;;;;5016086;28;20195;-82
2022/05/04 00:22:07;;;;;;;0.33;0.33;;;15.10;99.90;;;;;;5000767;28;20688;-81
2022/05/04 00:24:33;;;;;;;0.50;0.50;;;15.00;99.90;;;;;;5007296;28;20661;-81
2022/05/04 00:26:58;;;;;;;0.53;0.53;;;15.00;99.90;;;;;;5007048;28;20265;-82
2022/05/04 00:29:24;;;;;;;0.93;0.77;;;14.80;99.90;;;;;;5001805;28;20191;-82
2022/05/04 00:31:49;;;;;;;0.33;0.33;;;14.80;99.90;;;;;;5001637;28;20219;-81
2022/05/04 00:34:15;;;;;;;0.43;0.43;;;14.70;99.90;;;;;;5000753;28;20187;-81
2022/05/04 00:36:40;;;;;;;0.40;0.40;;;14.50;99.90;;;;;;5007093;28;20186;-81
2022/05/04 00:39:06;;;;;;;0.60;0.60;;;14.50;99.90;;;;;;5017133;28;20707;-82
2022/05/04 00:41:31;;;;;;;0.53;0.53;;;14.50;99.90;;;;;;5013164;28;20636;-82
2022/05/04 00:43:57;;;;;;;0.93;0.70;;;14.50;99.90;;;;;;4998313;28;20187;-82
2022/05/04 00:46:23;;;;;;;3.00;0.43;;;14.40;99.90;;;;;;5015560;28;20560;-81
2022/05/04 00:48:49;;;;;;;1.87;0.60;;;14.40;99.90;;;;;;5006151;28;20209;-81
2022/05/04 00:51:15;;;;;;;0.73;0.30;;;14.40;99.90;;;;;;5000014;28;20192;-81
2022/05/04 00:53:42;;;;;;;0.20;0.20;;;14.30;99.90;;;;;;5000586;28;20187;-81
2022/05/04 00:56:09;;;;;;;0.33;0.33;;;14.30;99.90;;;;;;5001487;28;20202;-81
2022/05/04 00:58:55;;;;;;;0.93;0.40;;;14.30;99.90;;;;;;5005196;28;20258;-81
2022/05/04 01:01:28;;;;;;;0.77;0.67;;;14.30;99.90;;;;;;5005771;28;20186;-81
2022/05/04 01:03:55;;;;;;;0.60;0.40;;;14.40;99.90;;;;;;5006643;28;20178;-81
2022/05/04 01:06:21;;;;;;;0.20;0.20;;;14.40;99.90;;;;;;5001690;28;20271;-81
2022/05/04 01:08:48;;;;;;;0.40;0.40;;;14.40;99.90;;;;;;5005912;28;20233;-82
2022/05/04 01:11:15;;;;;;;0.87;0.87;;;14.30;99.90;;;;;;5012963;28;20813;-81
2022/05/04 01:13:41;;;;;;;0.40;0.40;;;14.40;99.90;;;;;;4998151;28;20261;-81
2022/05/04 01:16:06;;;;;;;0.30;0.30;;;14.40;99.90;;;;;;4999502;28;20282;-81
2022/05/04 01:18:32;;;;;;;0.30;0.30;;;14.40;99.90;;;;;;5016589;28;20553;-81
2022/05/04 01:20:57;;;;;;;0.30;0.20;;;14.50;99.90;;;;;;5005920;28;20189;-81
2022/05/04 01:23:25;;;;;;;0.60;0.60;;;14.50;99.90;;;;;;5014666;28;20685;-81
2022/05/04 01:25:53;;;;;;;0.43;0.43;;;14.50;99.90;;;;;;5014028;28;20188;-81
2022/05/04 01:28:19;;;;;;;0.40;0.40;;;14.50;99.90;;;;;;4999391;28;20179;-82
2022/05/04 01:30:44;;;;;;;1.40;0.50;;;14.50;99.90;;;;;;5013790;28;20183;-81
2022/05/04 01:33:10;;;;;;;0.30;0.30;;;14.50;99.90;;;;;;4999938;28;20203;-81
2022/05/04 01:35:35;;;;;;;0.40;0.40;;;14.50;99.90;;;;;;4998268;28;20183;-81
2022/05/04 01:38:01;;;;;;;0.60;0.60;;;14.40;99.90;;;;;;4997809;28;20187;-81
2022/05/04 01:40:27;;;;;;;0.53;0.47;;;14.40;99.90;;;;;;5014010;28;20184;-81
2022/05/04 01:42:52;;;;;;;0.53;0.53;;;14.40;99.90;;;;;;5004906;28;20297;-82
2022/05/04 01:45:18;;;;;;;0.30;0.30;;;14.30;99.90;;;;;;5004529;28;20175;-81
2022/05/04 01:47:48;;;;;;;0.87;0.40;;;14.30;99.90;;;;;;4998598;28;20251;-81
2022/05/04 01:50:14;;;;;;;3.07;0.70;;;14.30;99.90;;;;;;5005230;28;20657;-81
2022/05/04 01:52:40;;;;;;;0.87;0.60;;;14.30;99.90;;;;;;4999573;28;20207;-81
2022/05/04 01:55:06;;;;;;;0.40;0.40;;;14.30;99.90;;;;;;5006668;28;20281;-81
2022/05/04 01:57:32;;;;;;;13.63;0.70;;;14.00;99.90;;;;;;5018899;28;20195;-81
2022/05/04 01:59:57;;;;;;;1.37;0.87;;;13.90;99.90;;;;;;5004567;28;20191;-82
2022/05/04 02:02:25;;;;;;;0.10;0.10;;;13.90;99.90;;;;;;5008272;28;20204;-81
2022/05/04 02:04:51;;;;;;;0.67;0.47;;;13.80;99.90;;;;;;5018835;28;20193;-81
2022/05/04 02:07:17;;;;;;;0.17;0.17;;;13.80;99.90;;;;;;5007783;28;21254;-81
2022/05/04 02:09:42;;;;;;;0.90;0.60;;;13.70;99.90;;;;;;5001564;28;20197;-81
2022/05/04 02:12:08;;;;;;;0.67;0.67;;;13.90;99.90;;;;;;5007356;28;20221;-81
2022/05/04 02:14:34;;;;;;;0.40;0.40;;;13.90;99.90;;;;;;5002006;28;20198;-81
2022/05/04 02:17:00;;;;;;;0.50;0.50;;;13.90;99.90;;;;;;5003014;28;20186;-81
2022/05/04 02:19:26;;;;;;;0.40;0.40;;;14.10;99.90;;;;;;5007971;28;20271;-81
2022/05/04 02:21:52;;;;;;;0.60;0.60;;;14.20;99.90;;;;;;5001886;28;20297;-81
2022/05/04 02:24:18;;;;;;;0.33;0.30;;;14.20;99.90;;;;;;5008291;28;20201;-81
2022/05/04 02:26:43;;;;;;;2.57;0.60;;;14.10;99.90;;;;;;5002515;28;20211;-81
2022/05/04 02:29:09;;;;;;;0.40;0.40;;;14.10;99.90;;;;;;5017379;28;20176;-81
2022/05/04 02:31:34;;;;;;;0.50;0.50;;;14.10;99.90;;;;;;5016007;28;20226;-81
2022/05/04 02:34:00;;;;;;;0.33;0.33;;;14.00;99.90;;;;;;5016872;28;20194;-81
2022/05/04 02:39:09;;;;;;;0.27;0.27;;;14.10;99.90;;;;;;5002852;28;20207;-81
2022/05/04 02:41:35;;;;;;;0.53;0.53;;;14.20;99.90;;;;;;5001827;28;20208;-81
2022/05/04 02:44:03;;;;;;;0.60;0.60;;;14.10;99.90;;;;;;5016314;28;20571;-81
2022/05/04 02:46:30;;;;;;;0.20;0.20;;;14.10;99.90;;;;;;5007744;28;20212;-81
2022/05/04 02:48:56;;;;;;;0.50;0.30;;;14.10;99.90;;;;;;5001615;28;20560;-81
2022/05/04 02:51:21;;;;;;;0.40;0.40;;;14.10;99.90;;;;;;5001237;28;20190;-81
2022/05/04 02:53:47;;;;;;;0.63;0.40;;;14.00;99.90;;;;;;5001209;28;20201;-81
2022/05/04 02:56:15;;;;;;;0.67;0.53;;;13.80;99.90;;;;;;5017513;28;20195;-81
2022/05/04 02:58:45;;;;;;;0.43;0.43;;;13.90;99.90;;;;;;5007710;28;20213;-82
2022/05/04 03:04:06;;;;;;;0.53;0.40;;;14.00;99.90;;;;;;5001121;28;20202;-81
2022/05/04 03:06:35;;;;;;;0.30;0.30;;;14.10;99.90;;;;;;5001368;28;20219;-81
2022/05/04 03:09:01;;;;;;;0.20;0.20;;;14.00;99.90;;;;;;5005834;28;20205;-81
2022/05/04 03:14:11;;;;;;;0.73;0.47;;;13.80;99.90;;;;;;5000952;28;20656;-83
2022/05/04 03:16:37;;;;;;;0.33;0.33;;;13.70;99.90;;;;;;5001607;28;20281;-81
2022/05/04 03:19:04;;;;;;;0.40;0.40;;;13.60;99.90;;;;;;5001680;28;20560;-81
2022/05/04 03:21:30;;;;;;;0.43;0.43;;;13.60;99.90;;;;;;5007365;28;20715;-81
2022/05/04 03:23:56;;;;;;;1.03;0.87;;;13.40;99.90;;;;;;5005857;28;20202;-81
2022/05/04 03:26:21;;;;;;;0.47;0.47;;;13.40;99.90;;;;;;5001365;28;20210;-81
2022/05/04 03:28:47;;;;;;;0.27;0.27;;;13.40;99.90;;;;;;5000103;28;20186;-81
2022/05/04 03:31:13;;;;;;;0.60;0.60;;;13.40;99.90;;;;;;5000682;28;20211;-81
2022/05/04 03:33:38;;;;;;;0.93;0.63;;;13.20;99.90;;;;;;5005560;28;20195;-81
2022/05/04 03:36:04;;;;;;;0.43;0.37;;;13.20;99.90;;;;;;5005710;28;20260;-81
2022/05/04 03:38:29;;;;;;;0.30;0.30;;;13.00;99.90;;;;;;5006930;28;20233;-81
2022/05/04 03:40:55;;;;;;;0.43;0.37;;;13.10;99.90;;;;;;5000463;28;20622;-81
2022/05/04 03:43:20;;;;;;;0.20;0.20;;;13.20;99.90;;;;;;5000510;28;20206;-81
2022/05/04 03:45:46;;;;;;;1.87;0.57;;;13.40;99.90;;;;;;5006515;28;20208;-82
2022/05/04 03:48:11;;;;;;;0.53;0.53;;;13.30;99.90;;;;;;5006152;28;20213;-81
2022/05/04 03:50:37;;;;;;;0.50;0.50;;;13.20;99.90;;;;;;5006254;28;20282;-81
2022/05/04 03:53:02;;;;;;;0.43;0.43;;;13.30;99.90;;;;;;4998113;28;20213;-81
2022/05/04 03:55:28;;;;;;;1.03;0.60;;;13.10;99.90;;;;;;5005189;28;20189;-82
2022/05/04 03:57:53;;;;;;;0.70;0.57;;;13.10;99.90;;;;;;5005921;28;20230;-81
2022/05/04 04:00:19;;;;;;;0.60;0.60;;;13.10;99.90;;;;;;5006989;28;20273;-82
2022/05/04 04:02:45;;;;;;;0.93;0.43;;;13.10;99.90;;;;;;4999097;28;20655;-82
2022/05/04 04:05:10;;;;;;;0.33;0.30;;;12.90;99.90;;;;;;5003189;28;20184;-81
2022/05/04 04:07:36;;;;;;;0.87;0.63;;;13.00;99.90;;;;;;5011596;28;20224;-82
2022/05/04 04:10:02;;;;;;;0.50;0.50;;;12.90;99.90;;;;;;5002680;28;20220;-81
2022/05/04 04:12:27;;;;;;;0.40;0.40;;;12.90;99.90;;;;;;4997696;28;20218;-82
2022/05/04 04:14:53;;;;;;;0.50;0.50;;;12.90;99.90;;;;;;5015057;28;20193;-81
2022/05/04 04:17:19;;;;;;;1.10;1.00;;;13.00;99.90;;;;;;5016504;28;20209;-81
2022/05/04 04:19:44;;;;;;;1.40;0.37;;;13.00;99.90;;;;;;5006163;28;20213;-81
2022/05/04 04:22:10;;;;;;;0.40;0.40;;;12.90;99.90;;;;;;5005892;28;20573;-81
2022/05/04 04:24:35;;;;;;;0.30;0.30;;;12.80;99.90;;;;;;4999558;28;20539;-81
2022/05/04 04:27:01;;;;;;;0.67;0.50;;;12.90;99.90;;;;;;5006930;28;20210;-81
2022/05/04 04:29:26;;;;;;;1.17;1.17;;;13.00;99.90;;;;;;5006778;28;20191;-81
2022/05/04 04:31:52;;;;;;;0.63;0.63;;;12.90;99.90;;;;;;5007119;28;20255;-81
2022/05/04 04:34:17;;;;;;;0.67;0.67;;;12.80;99.90;;;;;;5000386;28;20193;-82
2022/05/04 04:36:43;;;;;;;0.50;0.50;;;12.80;99.90;;;;;;4999708;28;20195;-81
2022/05/04 04:39:09;;;;;;;1.73;0.67;;;12.80;99.90;;;;;;4998410;28;20201;-81
2022/05/04 04:41:34;;;;;;;0.53;0.40;;;12.80;99.90;;;;;;5014216;28;20223;-81
2022/05/04 04:44:01;;;;;;;0.90;0.60;;;13.00;99.90;;;;;;4998739;28;20198;-81
2022/05/04 04:46:26;;;;;;;0.50;0.50;;;13.00;99.90;;;;;;4999012;28;20306;-81
2022/05/04 04:48:52;;;;;;;0.43;0.27;;;13.20;99.90;;;;;;4999214;28;20197;-82
2022/05/04 04:51:18;;;;;;;0.73;0.73;;;13.20;99.90;;;;;;5006168;28;20183;-81
2022/05/04 04:53:43;;;;;;;0.80;0.80;;;13.20;99.90;;;;;;5006159;28;20202;-82
2022/05/04 04:56:09;;;;;;;2.00;0.40;;;13.20;99.90;;;;;;4999472;28;20207;-81
2022/05/04 04:58:34;;;;;;;1.00;0.70;;;13.30;99.90;;;;;;5007539;28;20187;-81
2022/05/04 05:01:00;;;;;;;0.30;0.30;;;13.30;99.90;;;;;;5000325;28;20192;-81
2022/05/04 05:03:26;;;;;;;0.50;0.50;;;13.40;99.90;;;;;;5007476;28;20205;-81
2022/05/04 05:05:52;;;;;;;1.20;1.10;;;13.40;99.90;;;;;;5007081;28;20225;-81
2022/05/04 05:08:18;;;;;;;0.80;0.80;;;13.60;99.90;;;;;;5005628;28;20222;-81
2022/05/04 05:10:43;;;;;;;0.97;0.47;;;13.50;99.90;;;;;;5015457;28;20190;-82
2022/05/04 05:13:09;;;;;;;2.00;0.60;;;13.40;99.90;;;;;;4998100;28;20210;-83
2022/05/04 05:18:21;;;;;;;1.87;1.07;;;13.40;99.90;;;;;;4999779;28;20192;-80
2022/05/04 05:20:46;;;;;;;0.47;0.47;;;13.50;99.90;;;;;;4998820;28;20607;-80
2022/05/04 05:23:12;;;;;;;1.13;0.47;;;13.60;99.90;;;;;;4997271;28;20264;-80
2022/05/04 05:25:38;;;;;;;0.67;0.53;;;13.60;99.90;;;;;;5002607;28;20240;-80
2022/05/04 05:28:05;;;;;;;0.50;0.50;;;13.70;99.90;;;;;;4998318;28;20238;-79
2022/05/04 05:30:30;;;;;;;1.07;1.07;;;13.50;99.90;;;;;;4998699;28;21062;-80
2022/05/04 05:32:56;;;;;;;1.57;1.47;;;13.40;99.90;;;;;;4998886;28;20233;-80
2022/05/04 05:35:21;;;;;;;0.30;0.30;;;13.30;99.90;;;;;;5005762;28;20210;-79
2022/05/04 05:37:47;;;;;;;1.03;0.50;;;13.30;99.90;;;;;;5001079;28;20685;-79
2022/05/04 05:40:13;;;;;;;0.73;0.70;;;13.30;99.90;;;;;;5000889;28;20178;-79
2022/05/04 05:42:38;;;;;;;1.50;0.93;;;13.20;99.90;;;;;;5004803;28;20206;-79
2022/05/04 05:45:04;;;;;;;1.60;0.77;;;13.20;99.90;;;;;;5000104;28;20611;-80
2022/05/04 05:47:30;;;;;;;0.50;0.50;;;13.30;99.90;;;;;;4999584;28;21022;-80
2022/05/04 05:49:55;;;;;;;0.83;0.73;;;13.40;99.90;;;;;;5000204;28;20176;-81
2022/05/04 05:52:21;;;;;;;0.80;0.80;;;13.40;99.90;;;;;;5006090;28;20205;-81
2022/05/04 05:54:46;;;;;;;1.77;0.83;;;13.70;99.90;;;;;;5001893;28;20194;-81
2022/05/04 05:57:12;;;;;;;0.30;0.30;;;13.90;99.90;;;;;;5015812;28;20194;-81
2022/05/04 05:59:37;;;;;;;0.80;0.80;;;14.20;99.90;;;;;;5006750;28;20214;-81
2022/05/04 06:02:03;;;;;;;0.90;0.70;;;14.40;99.90;;;;;;5014848;28;20597;-81
2022/05/04 06:04:28;;;;;;;0.77;0.77;;;14.10;99.90;;;;;;5000859;28;20195;-81
2022/05/04 06:06:54;;;;;;;0.97;0.97;;;13.90;99.90;;;;;;5001110;28;20218;-81
2022/05/04 06:09:19;;;;;;;0.50;0.50;;;14.00;99.90;;;;;;5002400;28;20283;-81
2022/05/04 06:11:45;;;;;;;0.53;0.47;;;14.10;99.90;;;;;;5008139;28;20587;-81
2022/05/04 06:14:11;;;;;;;4.03;0.53;;;14.00;99.90;;;;;;5002173;28;20186;-81
2022/05/04 06:16:37;;;;;;;1.23;1.17;;;14.40;99.90;;;;;;5000550;28;20195;-80
2022/05/04 06:19:03;;;;;;;0.73;0.73;;;14.40;99.90;;;;;;5014336;28;20257;-80
2022/05/04 06:21:29;;;;;;;0.97;0.97;;;14.50;99.90;;;;;;5001482;28;20568;-81
2022/05/04 06:23:55;;;;;;;1.27;0.70;;;14.50;99.90;;;;;;5006803;28;20185;-81
2022/05/04 06:26:23;;;;;;;1.00;0.90;;;14.50;99.90;;;;;;5007205;28;20218;-81
2022/05/04 06:28:48;;;;;;;0.33;0.33;;;14.30;99.90;;;;;;5001133;28;20179;-81
2022/05/04 06:34:07;;;;;;;0.30;0.30;;;14.30;99.90;;;;;;4999902;28;20309;-81
2022/05/04 06:36:34;;;;;;;0.23;0.23;;;14.50;99.90;;;;;;5000918;28;20189;-81
2022/05/04 06:38:59;;;;;;;0.97;0.73;;;14.50;99.90;;;;;;5002726;28;20652;-81
2022/05/04 06:41:25;;;;;;;0.77;0.77;;;14.50;99.90;;;;;;4996896;28;20212;-81
2022/05/04 06:43:50;;;;;;;1.00;1.00;;;14.80;99.90;;;;;;5006271;28;20191;-81
2022/05/04 06:46:16;;;;;;;0.40;0.40;;;14.80;99.90;;;;;;5002853;28;20246;-80
2022/05/04 06:48:41;;;;;;;2.17;0.80;;;15.10;99.90;;;;;;4999486;28;20254;-79
2022/05/04 06:51:08;;;;;;;0.37;0.37;;;15.20;99.90;;;;;;5000585;28;20198;-80
2022/05/04 06:53:33;;;;;;;0.80;0.80;;;15.50;99.90;;;;;;4997888;28;20267;-80
2022/05/04 06:55:59;;;;;;;0.60;0.57;;;15.40;99.90;;;;;;4999769;28;20627;-79
2022/05/04 06:58:25;;;;;;;0.80;0.80;;;15.70;99.90;;;;;;4999030;28;20287;-79
2022/05/04 07:00:51;;;;;;;1.10;1.10;;;16.00;99.90;;;;;;4997589;28;20261;-79
2022/05/04 07:03:16;;;;;;;4.00;1.00;;;15.90;99.90;;;;;;5013724;28;20202;-79
2022/05/04 07:05:42;;;;;;;0.80;0.80;;;15.70;99.90;;;;;;4998439;28;20194;-79
2022/05/04 07:08:07;;;;;;;3.40;0.70;;;15.60;99.90;;;;;;5000483;28;20222;-79
2022/05/04 07:10:34;;;;;;;1.00;0.70;;;16.00;99.90;;;;;;4998654;28;20187;-79
2022/05/04 07:12:59;;;;;;;1.90;1.07;;;16.00;99.90;;;;;;5004911;28;20716;-79
2022/05/04 07:15:25;;;;;;;1.17;0.60;;;15.80;99.90;;;;;;5013583;28;20207;-79
2022/05/04 07:17:51;;;;;;;0.83;0.73;;;16.00;99.90;;;;;;4999471;28;20560;-79
2022/05/04 07:20:16;;;;;;;0.57;0.57;;;16.40;99.90;;;;;;4999782;28;20229;-79
2022/05/04 07:22:42;;;;;;;0.83;0.37;;;16.90;99.90;;;;;;4999387;28;20214;-79
2022/05/04 07:25:08;;;;;;;0.77;0.77;;;17.10;99.90;;;;;;4998908;28;20191;-79
2022/05/04 07:27:33;;;;;;;0.60;0.30;;;17.10;99.90;;;;;;4998514;28;20215;-79
2022/05/04 07:29:59;;;;;;;0.27;0.20;;;17.40;99.90;;;;;;5005013;28;20179;-79
2022/05/04 07:32:24;;;;;;;0.63;0.40;;;17.80;99.90;;;;;;4998457;28;20215;-79
2022/05/04 07:34:50;;;;;;;0.70;0.70;;;18.00;99.90;;;;;;4999546;28;20263;-79
2022/05/04 07:37:16;;;;;;;0.33;0.33;;;18.30;99.90;;;;;;4998156;28;20569;-79
2022/05/04 07:42:25;;;;;;;0.60;0.50;;;18.40;99.90;;;;;;4997377;28;20210;-79
2022/05/04 07:45:01;;;;;;;0.40;0.40;;;18.30;99.90;;;;;;4998291;28;20179;-79
2022/05/04 07:47:28;;;;;;;0.40;0.40;;;18.40;99.90;;;;;;4998230;28;20567;-79
2022/05/04 07:49:55;;;;;;;0.57;0.43;;;19.00;99.90;;;;;;4997158;28;20211;-79
2022/05/04 07:52:20;;;;;;;1.60;0.73;;;19.40;99.90;;;;;;5004598;28;20581;-79
2022/05/04 07:54:46;;;;;;;1.47;1.37;;;19.50;99.90;;;;;;4997317;28;20190;-79
2022/05/04 07:57:11;;;;;;;0.67;0.67;;;19.60;99.90;;;;;;5011537;28;20192;-79
2022/05/04 07:59:37;;;;;;;0.90;0.87;;;19.50;99.90;;;;;;4998131;28;20194;-79
2022/05/04 08:04:47;;;;;;;1.63;1.40;;;19.60;99.90;;;;;;4995476;28;20261;-79
2022/05/04 08:07:13;;;;;;;0.50;0.47;;;19.80;99.90;;;;;;5011697;28;21256;-79
2022/05/04 08:09:39;;;;;;;0.50;0.50;;;20.00;99.90;;;;;;4996371;28;20596;-79
2022/05/04 08:12:06;;;;;;;1.60;0.60;;;20.20;99.90;;;;;;4999899;28;20199;-79
2022/05/04 08:14:33;;;;;;;2.33;1.00;;;20.10;99.90;;;;;;4997544;28;20186;-79
2022/05/04 08:16:59;;;;;;;0.67;0.67;;;20.10;99.90;;;;;;4998928;28;20545;-79
2022/05/04 08:19:24;;;;;;;0.50;0.50;;;20.10;99.90;;;;;;5003941;28;20195;-80
2022/05/04 08:21:50;;;;;;;1.00;0.90;;;20.20;99.90;;;;;;4997121;28;20207;-79
2022/05/04 08:24:16;;;;;;;1.13;0.80;;;20.10;99.90;;;;;;4996138;28;20191;-79
2022/05/04 08:26:42;;;;;;;0.90;0.90;;;20.00;99.90;;;;;;5011501;28;20287;-80
2022/05/04 08:29:08;;;;;;;1.97;1.67;;;19.80;99.90;;;;;;5004313;28;20218;-79
2022/05/04 08:31:33;;;;;;;0.57;0.57;;;19.70;99.90;;;;;;4998285;28;20205;-80
2022/05/04 08:33:59;;;;;;;0.50;0.50;;;19.70;99.90;;;;;;5012978;28;20265;-79
2022/05/04 08:36:25;;;;;;;0.60;0.57;;;19.60;99.90;;;;;;5013166;28;20185;-80
2022/05/04 08:38:50;;;;;;;0.73;0.73;;;19.70;99.90;;;;;;5012505;28;20193;-80
2022/05/04 08:41:16;;;;;;;0.97;0.80;;;19.60;99.90;;;;;;5003878;28;20224;-79
2022/05/04 08:43:43;;;;;;;0.30;0.30;;;19.50;99.90;;;;;;4995462;28;20665;-80
2022/05/04 08:46:13;;;;;;;1.87;1.13;;;19.50;99.90;;;;;;4997872;28;20180;-79
2022/05/04 08:48:40;;;;;;;5.70;0.97;;;19.20;99.90;;;;;;5002259;28;20196;-79
2022/05/04 08:51:07;;;;;;;0.47;0.47;;;19.00;99.90;;;;;;4998094;28;20638;-80
2022/05/04 08:53:34;;;;;;;0.90;0.73;;;18.90;99.90;;;;;;5003960;28;20214;-80
2022/05/04 08:56:00;;;;;;;0.70;0.70;;;18.80;99.90;;;;;;4997229;28;20194;-79
2022/05/04 08:58:26;;;;;;;0.73;0.73;;;18.80;99.90;;;;;;4996528;28;20301;-79
2022/05/04 09:00:51;;;;;;;0.83;0.83;;;19.00;99.90;;;;;;4997555;28;20728;-79
2022/05/04 09:03:18;;;;;;;0.57;0.57;;;19.30;99.90;;;;;;4996745;28;20564;-79
2022/05/04 09:05:47;;;;;;;1.70;1.60;;;19.40;99.90;;;;;;5000902;28;20224;-79
2022/05/04 09:08:13;;;;;;;1.43;0.80;;;19.50;99.90;;;;;;4999056;28;20248;-79
2022/05/04 09:10:40;;;;;;;1.40;0.93;;;19.70;99.90;;;;;;5007489;28;20241;-80
2022/05/04 09:13:07;;;;;;;1.73;1.63;;;19.30;99.90;;;;;;5000566;28;20213;-80
2022/05/04 09:15:34;;;;;;;1.17;0.70;;;18.60;99.90;;;;;;5001184;28;20227;-80
2022/05/04 09:18:09;;;;;;;0.67;0.67;;;19.00;99.90;;;;;;5007166;28;20183;-80
2022/05/04 09:20:49;;;;;;;0.70;0.70;;;18.60;99.90;;;;;;4998781;28;20200;-80
2022/05/04 09:23:17;;;;;;;1.53;1.23;;;19.10;99.90;;;;;;5003903;28;20688;-80
2022/05/04 09:25:43;;;;;;;1.60;1.10;;;19.10;99.90;;;;;;5016732;28;20202;-80
2022/05/04 09:28:11;;;;;;;1.43;0.73;;;19.80;99.90;;;;;;5017407;28;20209;-80
2022/05/04 09:30:51;;;;;;;2.63;1.03;;;19.30;99.90;;;;;;5001009;28;20188;-81
2022/05/04 09:33:26;;;;;;;0.67;0.67;;;19.60;99.90;;;;;;5001616;28;20262;-81
2022/05/04 09:35:52;;;;;;;1.30;0.97;;;19.20;99.90;;;;;;5001339;28;20187;-81
2022/05/04 09:46:47;;;;;;;0.60;0.60;;;20.90;99.90;;;;;;5002891;28;20922;-80
2022/05/04 09:49:20;;;;;;;1.00;1.00;;;20.80;99.90;;;;;;5000333;28;20734;-81
2022/05/04 09:51:52;;;;;;;1.23;0.90;;;20.40;99.90;;;;;;5007280;28;20225;-81
2022/05/04 09:54:27;;;;;;;0.77;0.40;;;20.00;99.90;;;;;;5001523;28;20191;-81
2022/05/04 09:56:55;;;;;;;0.60;0.60;;;20.60;99.90;;;;;;5001239;28;20182;-81
2022/05/04 09:59:23;;;;;;;1.50;0.70;;;21.00;99.90;;;;;;5017649;28;20194;-81
2022/05/04 10:01:51;;;;;;;0.93;0.60;;;21.30;99.90;;;;;;5002384;28;20203;-81
2022/05/04 10:04:20;;;;;;;1.17;1.07;;;21.40;99.90;;;;;;5015823;28;20332;-81
2022/05/04 10:06:47;;;;;;;0.50;0.50;;;21.90;99.90;;;;;;5006323;28;20278;-82
2022/05/04 10:09:13;;;;;;;0.50;0.50;;;22.20;99.90;;;;;;5000060;28;20253;-81
2022/05/04 10:11:39;;;;;;;0.90;0.70;;;22.30;99.90;;;;;;5003842;28;20215;-81
2022/05/04 10:14:09;;;;;;;0.97;0.90;;;22.40;99.90;;;;;;5001513;28;20695;-81
2022/05/04 10:16:41;;;;;;;0.37;0.37;;;22.20;99.90;;;;;;5015804;28;20188;-81
2022/05/04 10:19:12;;;;;;;0.93;0.80;;;22.30;99.90;;;;;;5003176;28;20187;-81
2022/05/04 10:21:39;;;;;;;0.87;0.83;;;22.80;99.90;;;;;;5008091;28;20576;-82
2022/05/04 10:24:07;;;;;;;0.50;0.50;;;22.10;99.90;;;;;;5001292;28;20684;-81
2022/05/04 10:26:39;;;;;;;0.93;0.93;;;22.20;99.90;;;;;;5006952;28;20257;-81
2022/05/04 10:32:07;;;;;;;0.73;0.73;;;23.00;99.90;;;;;;5000518;28;20223;-81
2022/05/04 10:34:33;;;;;;;1.53;1.20;;;23.40;99.90;;;;;;5000903;28;20199;-82
2022/05/04 10:36:58;;;;;;;1.10;0.80;;;23.60;99.90;;;;;;5002078;28;20246;-81
2022/05/04 10:39:24;;;;;;;1.10;1.00;;;23.30;99.90;;;;;;5001426;28;20364;-82
2022/05/04 10:41:50;;;;;;;1.33;1.27;;;23.30;99.90;;;;;;4999231;28;20704;-80
2022/05/04 10:44:17;;;;;;;0.80;0.77;;;23.70;99.90;;;;;;5007493;28;20195;-81
2022/05/04 10:46:46;;;;;;;0.80;0.80;;;23.90;99.90;;;;;;5001145;28;20218;-81
2022/05/04 10:49:14;;;;;;;1.07;0.90;;;23.70;99.90;;;;;;4999849;28;20183;-81
2022/05/04 10:51:42;;;;;;;0.73;0.73;;;23.40;99.90;;;;;;5000076;28;20203;-81
2022/05/04 10:54:18;;;;;;;0.57;0.57;;;23.70;99.90;;;;;;5002991;28;20175;-81
2022/05/04 10:56:52;;;;;;;0.77;0.67;;;23.60;99.90;;;;;;5000805;28;21285;-81
2022/05/04 10:59:34;;;;;;;0.70;0.70;;;23.90;99.90;;;;;;5006953;28;20188;-81
2022/05/04 11:02:05;;;;;;;0.60;0.60;;;23.90;99.90;;;;;;5005611;28;20211;-81
2022/05/04 11:04:32;;;;;;;0.67;0.67;;;24.10;99.90;;;;;;5014329;28;20236;-81
2022/05/04 11:07:04;;;;;;;2.20;0.57;;;24.50;99.90;;;;;;5006996;28;20580;-81
2022/05/04 11:09:39;;;;;;;1.70;1.17;;;24.90;99.90;;;;;;5015115;28;20200;-81
2022/05/04 11:12:06;;;;;;;0.50;0.50;;;24.90;99.90;;;;;;5002481;28;20215;-81
2022/05/04 11:14:34;;;;;;;0.70;0.70;;;25.00;99.90;;;;;;5001469;28;20199;-81
2022/05/04 11:17:00;;;;;;;1.07;0.90;;;24.60;99.90;;;;;;5003113;28;20183;-81
2022/05/04 11:19:32;;;;;;;0.93;0.73;;;24.10;99.90;;;;;;5001851;28;20194;-81
2022/05/04 11:21:58;;;;;;;0.97;0.70;;;23.60;99.90;;;;;;5003131;28;20281;-81
2022/05/04 11:24:28;;;;;;;1.00;0.67;;;23.90;99.90;;;;;;5001560;28;20649;-81
2022/05/04 11:26:54;;;;;;;1.03;0.80;;;24.20;99.90;;;;;;5003874;28;20266;-80
2022/05/04 11:29:24;;;;;;;0.50;0.50;;;24.70;99.90;;;;;;5013113;28;20183;-81
2022/05/04 11:31:56;;;;;;;1.70;1.07;;;24.90;99.90;;;;;;5003117;28;20273;-81
2022/05/04 11:34:27;;;;;;;0.77;0.77;;;24.90;99.90;;;;;;4999872;28;20187;-79
2022/05/04 11:36:56;;;;;;;0.60;0.60;;;25.20;99.90;;;;;;5011546;28;20808;-80
2022/05/04 11:39:26;;;;;;;0.60;0.60;;;24.70;99.90;;;;;;5004138;28;20237;-81
2022/05/04 11:41:55;;;;;;;0.77;0.77;;;24.20;99.90;;;;;;4999933;28;20203;-81
2022/05/04 11:44:23;;;;;;;1.87;1.30;;;22.60;99.90;;;;;;5000884;28;20671;-81
2022/05/04 11:46:53;;;;;;;0.73;0.67;;;21.30;99.90;;;;;;5007369;28;20211;-81
2022/05/04 11:49:21;;;;;;;1.13;1.00;;;21.30;99.90;;;;;;5000576;28;20310;-82
2022/05/04 11:51:46;;;;;;;1.27;0.90;;;20.90;99.90;;;;;;5006946;28;20207;-81
2022/05/04 11:54:12;;;;;;;0.77;0.77;;;20.50;99.90;;;;;;5006877;28;20183;-81
2022/05/04 11:56:38;;;;;;;0.73;0.73;;;20.50;99.90;;;;;;5006729;28;20225;-81
2022/05/04 11:59:05;;;;;;;1.17;1.00;;;20.60;99.90;;;;;;5001478;28;20195;-81
2022/05/04 12:01:30;;;;;;;0.73;0.60;;;21.30;99.90;;;;;;5006885;28;22617;-81
2022/05/04 12:03:58;;;;;;;2.20;0.70;;;21.90;99.90;;;;;;4999511;28;20337;-81
2022/05/04 12:06:23;;;;;;;0.87;0.60;;;21.30;99.90;;;;;;5001730;28;20226;-81
2022/05/04 12:08:49;;;;;;;0.60;0.60;;;21.50;99.90;;;;;;5001525;28;20191;-84
2022/05/04 12:11:16;;;;;;;0.93;0.50;;;21.70;99.90;;;;;;5017501;28;20186;-81
2022/05/04 12:13:42;;;;;;;0.40;0.40;;;22.10;99.90;;;;;;5000454;28;20240;-82
2022/05/04 12:16:09;;;;;;;0.37;0.37;;;22.40;99.90;;;;;;5006856;28;20663;-81
2022/05/04 12:18:36;;;;;;;0.50;0.50;;;22.90;99.90;;;;;;4999734;28;20561;-81
2022/05/04 12:21:16;;;;;;;0.70;0.63;;;23.10;99.90;;;;;;5007506;28;20244;-82
2022/05/04 12:23:45;;;;;;;0.70;0.70;;;23.00;99.90;;;;;;5008006;28;20194;-82
2022/05/04 12:26:12;;;;;;;1.20;0.70;;;23.10;99.90;;;;;;4999248;28;20194;-81
2022/05/04 12:28:39;;;;;;;0.87;0.70;;;23.10;99.90;;;;;;5000178;28;20188;-81
2022/05/04 12:33:49;;;;;;;0.53;0.53;;;23.90;99.90;;;;;;4999739;28;20185;-81
2022/05/04 12:36:23;;;;;;;1.63;0.83;;;24.20;99.90;;;;;;5016709;28;20274;-81
2022/05/04 12:38:50;;;;;;;0.83;0.73;;;23.80;99.90;;;;;;4996561;28;20186;-81
2022/05/04 12:41:19;;;;;;;0.30;0.30;;;23.70;99.90;;;;;;4999602;28;20201;-81
2022/05/04 12:43:47;;;;;;;0.90;0.90;;;23.60;99.90;;;;;;4999960;28;20211;-81
2022/05/04 12:46:17;;;;;;;0.40;0.40;;;23.60;99.90;;;;;;4998453;28;20175;-81
2022/05/04 12:48:46;;;;;;;0.60;0.60;;;23.30;99.90;;;;;;5005990;28;20195;-81
2022/05/04 12:51:17;;;;;;;1.17;0.87;;;23.40;99.90;;;;;;5000113;28;20186;-81
2022/05/04 12:53:47;;;;;;;1.07;0.60;;;23.00;99.90;;;;;;5004454;28;20179;-81
2022/05/04 12:59:00;;;;;;;1.90;1.13;;;23.20;99.90;;;;;;5000471;28;20201;-82
2022/05/04 13:01:26;;;;;;;0.43;0.43;;;23.80;99.90;;;;;;5000179;28;20175;-81
2022/05/04 13:03:52;;;;;;;0.50;0.50;;;24.00;99.90;;;;;;5006124;28;20243;-82
2022/05/04 13:06:19;;;;;;;1.70;1.10;;;24.30;99.90;;;;;;5005957;28;20265;-82
2022/05/04 13:08:48;;;;;;;0.33;0.33;;;24.20;99.90;;;;;;4999123;28;20203;-82
2022/05/04 13:11:14;;;;;;;0.40;0.40;;;24.20;99.90;;;;;;4999493;28;20171;-81
2022/05/04 13:13:40;;;;;;;0.57;0.57;;;24.20;99.90;;;;;;4998924;28;20318;-81
2022/05/04 13:16:05;;;;;;;0.80;0.80;;;24.00;99.90;;;;;;5000073;28;20203;-81
2022/05/04 13:18:31;;;;;;;1.40;0.80;;;23.10;99.90;;;;;;5016050;28;20183;-81
2022/05/04 13:20:57;;;;;;;0.97;0.70;;;22.30;99.90;;;;;;5005561;28;20207;-81